createdAt,value
2022-08-08T00:00:52.668Z,29.93
2022-08-08T00:01:08.614Z,29.79
2022-08-08T00:01:13.312Z,29.79
2022-08-08T00:02:36.576Z,30.21
2022-08-08T00:03:32.979Z,30.53
2022-08-08T00:05:13.258Z,30.70
2022-08-08T00:06:10.159Z,30.85
2022-08-08T00:07:16.377Z,31.08
2022-08-08T00:08:10.323Z,31.01
2022-08-08T00:09:12.072Z,31.26
2022-08-08T00:10:14.275Z,31.37
2022-08-08T00:11:16.544Z,31.72
2022-08-08T00:12:13.855Z,26
2022-08-08T00:13:20.944Z,32.90
2022-08-08T00:15:13.131Z,34.60
2022-08-08T00:16:12.833Z,34.41
2022-08-08T00:17:27.312Z,34.08
2022-08-08T00:18:10.687Z,34.08
2022-08-08T00:19:11.303Z,34.20
2022-08-08T00:21:11.288Z,34.97
2022-08-08T00:22:14.189Z,34.20
2022-08-08T00:23:11.541Z,32.70
2022-08-08T00:24:14.171Z,34.04
2022-08-08T00:25:12.096Z,32.59
2022-08-08T00:26:21.881Z,32.06
2022-08-08T00:27:11.335Z,29.84
2022-08-08T00:28:37.846Z,29.71
2022-08-08T00:29:11.686Z,29.71
2022-08-08T00:30:15.833Z,29.79
2022-08-08T00:32:39.654Z,47.5
2022-08-08T00:32:40.045Z,47.5
2022-08-08T00:33:11.107Z,47.5
2022-08-08T00:34:23.154Z,47.72
2022-08-08T00:35:15.384Z,47.72
2022-08-08T00:36:17.921Z,48.04
2022-08-08T00:37:47.974Z,47.03
2022-08-08T00:38:17.044Z,47.03
2022-08-08T00:41:18.194Z,46.29
2022-08-08T00:41:21.895Z,46.29
2022-08-08T00:41:22.101Z,46.29
2022-08-08T00:42:30.323Z,44.40
2022-08-08T00:43:23.694Z,46.50
2022-08-08T00:44:12.176Z,46.50
2022-08-08T00:45:27.190Z,46.86
2022-08-08T00:47:23.906Z,46.38
2022-08-08T00:48:34.189Z,45.93
2022-08-08T00:49:27.233Z,46.66
2022-08-08T00:50:12.801Z,46.66
2022-08-08T00:51:15.101Z,48.90
2022-08-08T00:52:19.642Z,49.61
2022-08-08T00:53:19.200Z,46
2022-08-08T00:55:12.387Z,49.86
2022-08-08T00:56:16.513Z,50.50
2022-08-08T00:57:12.806Z,50.75
2022-08-08T00:58:17.005Z,50.86
2022-08-08T00:59:09.876Z,49.63
2022-08-08T01:00:12.024Z,47.68
2022-08-08T01:01:11.983Z,48.08
2022-08-08T01:04:07.249Z,47.52
2022-08-08T01:04:10.881Z,47.52
2022-08-08T01:04:15.332Z,47.52
2022-08-08T01:05:10.300Z,47.02
2022-08-08T01:06:11.904Z,47.33
2022-08-08T01:07:10.636Z,47.20
2022-08-08T01:08:10.360Z,30
2022-08-08T01:09:48.632Z,47.24
2022-08-08T01:10:11.986Z,47.24
2022-08-08T01:11:11.622Z,47.36
2022-08-08T01:12:12.481Z,47.63
2022-08-08T01:13:10.159Z,47.08
2022-08-08T01:14:16.753Z,47.52
2022-08-08T01:15:10.983Z,47.81
2022-08-08T01:16:10.783Z,47.95
2022-08-08T01:17:11.160Z,47.74
2022-08-08T01:19:52.630Z,48.02
2022-08-08T01:20:16.593Z,48.02
2022-08-08T01:21:12.226Z,47.90
2022-08-08T01:22:23.359Z,47.79
2022-08-08T01:24:07.121Z,46.61
2022-08-08T01:25:17.725Z,46.36
2022-08-08T01:26:16.396Z,42.5
2022-08-08T01:27:16.288Z,41.47
2022-08-08T01:28:10.612Z,43.18
2022-08-08T01:29:11.224Z,45.45
2022-08-08T01:30:12.580Z,45.68
2022-08-08T01:32:17.212Z,45.75
2022-08-08T01:32:21.270Z,45.63
2022-08-08T01:33:43.017Z,45.56
2022-08-08T01:34:10.670Z,45.56
2022-08-08T01:35:15.150Z,45.58
2022-08-08T01:36:10.670Z,45.61
2022-08-08T01:37:21.577Z,45.72
2022-08-08T01:38:09.848Z,45.81
2022-08-08T01:39:24.273Z,45.63
2022-08-08T01:40:18.091Z,44.40
2022-08-08T01:41:15.889Z,45.02
2022-08-08T01:42:11.789Z,44.09
2022-08-08T01:43:09.930Z,43
2022-08-08T01:44:10.643Z,43.66
2022-08-08T01:45:17.520Z,42.88
2022-08-08T01:46:12.597Z,42.79
2022-08-08T01:48:35.064Z,43.84
2022-08-08T01:49:22.820Z,43.84
2022-08-08T01:50:11.804Z,44.29
2022-08-08T01:52:05.526Z,43.95
2022-08-08T01:56:26.543Z,38.88
2022-08-08T01:56:27.235Z,38.88
2022-08-08T01:56:30.961Z,38.95
2022-08-08T01:56:34.229Z,38.95
2022-08-08T01:56:37.235Z,38.95
2022-08-08T01:57:17.236Z,38.95
2022-08-08T01:58:16.730Z,40.40
2022-08-08T01:59:11.323Z,40.08
2022-08-08T02:00:16.424Z,40.54
2022-08-08T02:01:19.326Z,41.34
2022-08-08T02:02:13.992Z,41.34
2022-08-08T02:03:57.499Z,41.31
2022-08-08T02:04:12.669Z,41.31
2022-08-08T02:05:10.958Z,39.47
2022-08-08T02:06:10.803Z,38.20
2022-08-08T02:07:10.211Z,39.20
2022-08-08T02:08:13.070Z,37.74
2022-08-08T02:09:50.223Z,37.75
2022-08-08T02:10:30.271Z,37.75
2022-08-08T02:11:59.818Z,39.41
2022-08-08T02:12:16.045Z,39.41
2022-08-08T02:13:10.527Z,38.22
2022-08-08T02:14:10.062Z,37.72
2022-08-08T02:15:15.969Z,37.72
2022-08-08T02:16:12.175Z,37.87
2022-08-08T02:17:23.399Z,37.33
2022-08-08T02:18:14.201Z,37.33
2022-08-08T02:19:57.952Z,37.68
2022-08-08T02:21:31.952Z,39.13
2022-08-08T02:23:32.219Z,39.93
2022-08-08T02:24:09.970Z,40.68
2022-08-08T02:25:18.258Z,39.91
2022-08-08T02:26:10.878Z,40.41
2022-08-08T02:27:12.874Z,40.84
2022-08-08T02:28:11.107Z,40.04
2022-08-08T02:29:15.029Z,40.36
2022-08-08T02:30:25.438Z,40.95
2022-08-08T02:31:58.794Z,40.86
2022-08-08T02:32:22.488Z,40.86
2022-08-08T02:33:12.684Z,41.63
2022-08-08T02:34:15.144Z,41.40
2022-08-08T02:35:15.196Z,41.81
2022-08-08T02:36:16.526Z,30
2022-08-08T02:37:53.226Z,41.81
2022-08-08T02:38:12.817Z,41.16
2022-08-08T02:39:58.303Z,40.06
2022-08-08T02:40:12.257Z,40.06
2022-08-08T02:42:07.800Z,40.45
2022-08-08T02:42:14.343Z,40.45
2022-08-08T02:44:57.348Z,39.93
2022-08-08T02:45:00.143Z,39.93
2022-08-08T02:45:22.215Z,39.74
2022-08-08T02:46:11.569Z,39.74
2022-08-08T02:47:10.708Z,39.83
2022-08-08T02:48:12.768Z,39.61
2022-08-08T02:49:18.630Z,38.79
2022-08-08T02:50:20.945Z,37.68
2022-08-08T02:51:15.005Z,37.68
2022-08-08T02:52:38.774Z,39.11
2022-08-08T02:53:10.903Z,39.11
2022-08-08T02:54:10.898Z,39.11
2022-08-08T02:55:22.881Z,38.65
2022-08-08T02:56:12.298Z,38.65
2022-08-08T02:57:17.166Z,38.41
2022-08-08T02:58:10.503Z,39.15
2022-08-08T02:59:57.300Z,39.25
2022-08-08T03:00:33.667Z,38.95
2022-08-08T03:01:18.406Z,38.95
2022-08-08T03:02:20.028Z,38.93
2022-08-08T03:03:11.423Z,38.83
2022-08-08T03:05:13.524Z,38.77
2022-08-08T03:05:15.256Z,38.77
2022-08-08T03:06:10.786Z,38.75
2022-08-08T03:07:10.738Z,38.72
2022-08-08T03:08:11.490Z,38.86
2022-08-08T03:09:10.285Z,39.13
2022-08-08T03:10:31.527Z,38.97
2022-08-08T03:11:37.731Z,37.95
2022-08-08T03:12:17.792Z,36.86
2022-08-08T03:16:01.152Z,36.65
2022-08-08T03:16:09.552Z,36.16
2022-08-08T03:16:10.468Z,36.16
2022-08-08T03:16:34.242Z,36.16
2022-08-08T03:17:11.991Z,36.52
2022-08-08T03:18:13.531Z,36.38
2022-08-08T03:19:10.631Z,36.41
2022-08-08T03:20:13.554Z,35.36
2022-08-08T03:21:18.110Z,34.61
2022-08-08T03:22:43.956Z,34.32
2022-08-08T03:23:10.629Z,34.32
2022-08-08T03:24:10.860Z,34.08
2022-08-08T03:25:19.147Z,33.45
2022-08-08T03:26:11.935Z,33.45
2022-08-08T03:27:11.345Z,33.31
2022-08-08T03:28:10.572Z,33.25
2022-08-08T03:29:38.232Z,33.54
2022-08-08T03:30:10.712Z,33.54
2022-08-08T03:31:30.503Z,33.16
2022-08-08T03:32:12.026Z,33.16
2022-08-08T03:34:01.093Z,34.45
2022-08-08T03:35:13.323Z,35.36
2022-08-08T03:36:19.471Z,35.52
2022-08-08T03:39:14.192Z,35.70
2022-08-08T03:39:14.225Z,35.70
2022-08-08T03:39:19.008Z,35.43
2022-08-08T03:40:32.598Z,35.86
2022-08-08T03:42:30.026Z,35.40
2022-08-08T03:42:32.415Z,35.38
2022-08-08T03:43:23.120Z,35.47
2022-08-08T03:44:10.000Z,35.47
2022-08-08T03:46:13.656Z,35.93
2022-08-08T03:46:14.136Z,35.93
2022-08-08T03:47:23.409Z,36.38
2022-08-08T03:48:21.185Z,36.38
2022-08-08T03:50:03.519Z,36.36
2022-08-08T03:50:14.398Z,36.36
2022-08-08T03:51:10.354Z,36.20
2022-08-08T03:52:16.551Z,36.83
2022-08-08T03:53:11.859Z,36.68
2022-08-08T03:54:15.642Z,36.59
2022-08-08T03:56:04.538Z,36.86
2022-08-08T03:56:31.794Z,36.86
2022-08-08T03:58:47.683Z,36.40
2022-08-08T03:58:47.942Z,36.40
2022-08-08T03:59:26.345Z,36.47
2022-08-08T04:00:18.304Z,36.47
2022-08-08T04:02:47.679Z,36.63
2022-08-08T04:02:47.748Z,36.63
2022-08-08T04:03:15.615Z,36.63
2022-08-08T04:04:13.593Z,36.75
2022-08-08T04:05:13.762Z,36.69
2022-08-08T04:06:10.386Z,36.13
2022-08-08T04:07:10.566Z,36.37
2022-08-08T04:08:10.362Z,36.35
2022-08-08T04:09:15.412Z,36.38
2022-08-08T04:10:13.468Z,36.58
2022-08-08T04:11:23.646Z,36.43
2022-08-08T04:12:15.930Z,36.43
2022-08-08T04:13:22.311Z,36.82
2022-08-08T04:14:38.442Z,36.72
2022-08-08T04:15:11.067Z,36.72
2022-08-08T04:16:12.479Z,36.80
2022-08-08T04:17:57.897Z,36.73
2022-08-08T04:19:28.743Z,36.11
2022-08-08T04:20:12.381Z,36.11
2022-08-08T04:21:11.904Z,36.27
2022-08-08T04:22:10.481Z,35.95
2022-08-08T04:23:11.187Z,36.21
2022-08-08T04:24:32.657Z,35.88
2022-08-08T04:25:15.333Z,35.88
2022-08-08T04:26:12.913Z,36.17
2022-08-08T04:28:35.439Z,36.37
2022-08-08T04:28:43.140Z,36.02
2022-08-08T04:29:12.111Z,36.02
2022-08-08T04:30:22.944Z,36.13
2022-08-08T04:31:12.789Z,36.13
2022-08-08T04:32:47.992Z,35.97
2022-08-08T04:33:15.853Z,35.97
2022-08-08T04:34:11.656Z,36.20
2022-08-08T04:35:16.444Z,36.41
2022-08-08T04:36:10.370Z,35.84
2022-08-08T04:37:11.051Z,35.97
2022-08-08T04:38:29.430Z,36.04
2022-08-08T04:40:10.803Z,35.52
2022-08-08T04:40:15.829Z,35.52
2022-08-08T04:41:11.157Z,35.68
2022-08-08T04:42:15.761Z,35.47
2022-08-08T04:43:12.385Z,35.58
2022-08-08T04:44:10.327Z,35.79
2022-08-08T04:45:10.545Z,35.59
2022-08-08T04:46:10.206Z,35.52
2022-08-08T04:47:16.576Z,35.31
2022-08-08T04:48:11.467Z,35.38
2022-08-08T04:49:14.735Z,35.59
2022-08-08T04:50:34.316Z,35.59
2022-08-08T04:51:17.402Z,35.59
2022-08-08T04:52:10.279Z,35.72
2022-08-08T04:54:38.919Z,35.84
2022-08-08T04:54:45.262Z,35.75
2022-08-08T04:55:10.456Z,35.75
2022-08-08T04:56:10.648Z,35.45
2022-08-08T04:57:11.440Z,35.65
2022-08-08T04:58:17.703Z,35.72
2022-08-08T04:59:11.615Z,35.96
2022-08-08T05:00:14.443Z,35.99
2022-08-08T05:01:15.602Z,36.11
2022-08-08T05:02:13.814Z,35.93
2022-08-08T05:03:18.743Z,35.90
2022-08-08T05:04:15.807Z,35.97
2022-08-08T05:05:20.448Z,35.75
2022-08-08T05:06:25.826Z,35.63
2022-08-08T05:07:10.114Z,35.63
2022-08-08T05:08:15.946Z,35.95
2022-08-08T05:09:10.204Z,35.83
2022-08-08T05:10:16.378Z,35.89
2022-08-08T05:11:11.478Z,35.40
2022-08-08T05:12:20.543Z,35.82
2022-08-08T05:13:21.123Z,35.34
2022-08-08T05:14:12.432Z,35.34
2022-08-08T05:15:16.950Z,35.43
2022-08-08T05:17:09.074Z,35.45
2022-08-08T05:17:15.324Z,35.45
2022-08-08T05:18:11.102Z,35.22
2022-08-08T05:20:14.983Z,35.36
2022-08-08T05:21:09.905Z,35.54
2022-08-08T05:22:10.600Z,35.53
2022-08-08T05:23:13.565Z,35.52
2022-08-08T05:24:14.133Z,35.33
2022-08-08T05:25:10.337Z,35.20
2022-08-08T05:26:10.560Z,35.25
2022-08-08T05:27:10.451Z,35.20
2022-08-08T05:28:11.467Z,20
2022-08-08T05:29:13.619Z,35.34
2022-08-08T05:30:14.216Z,35.13
2022-08-08T05:32:08.370Z,35.63
2022-08-08T05:32:13.108Z,35.63
2022-08-08T05:33:11.285Z,35.62
2022-08-08T05:34:15.872Z,35.64
2022-08-08T05:35:13.631Z,35.72
2022-08-08T05:36:10.740Z,35.59
2022-08-08T05:37:22.310Z,35.70
2022-08-08T05:38:34.285Z,35.56
2022-08-08T05:39:13.139Z,35.56
2022-08-08T05:40:12.821Z,35.56
2022-08-08T05:41:11.430Z,35.54
2022-08-08T05:42:10.572Z,35.63
2022-08-08T05:44:08.379Z,35.75
2022-08-08T05:44:11.893Z,35.75
2022-08-08T05:45:41.567Z,35.56
2022-08-08T05:46:51.985Z,35.27
2022-08-08T05:47:14.117Z,35.27
2022-08-08T05:48:12.683Z,35.70
2022-08-08T05:49:15.631Z,35.81
2022-08-08T05:50:10.495Z,35.84
2022-08-08T05:51:18.642Z,35.93
2022-08-08T05:52:13.198Z,35.93
2022-08-08T05:54:27.592Z,34.68
2022-08-08T05:54:57.224Z,34.74
2022-08-08T05:55:14.122Z,34.74
2022-08-08T05:57:10.839Z,34.20
2022-08-08T05:59:59.349Z,35.04
2022-08-08T06:01:12.142Z,34.79
2022-08-08T06:02:12.845Z,34.54
2022-08-08T06:03:17.353Z,34.65
2022-08-08T06:04:13.850Z,20
2022-08-08T06:05:38.833Z,34.81
2022-08-08T06:06:11.048Z,34.81
2022-08-08T06:07:11.169Z,34.81
2022-08-08T06:08:34.639Z,34.72
2022-08-08T06:10:06.435Z,34.86
2022-08-08T06:10:14.042Z,34.86
2022-08-08T06:11:13.342Z,34.84
2022-08-08T06:12:10.408Z,35.09
2022-08-08T06:13:12.490Z,34.93
2022-08-08T06:14:17.730Z,34.79
2022-08-08T06:15:13.244Z,35.19
2022-08-08T06:16:10.770Z,34.84
2022-08-08T06:17:10.771Z,35.06
2022-08-08T06:18:25.420Z,35.15
2022-08-08T06:19:16.211Z,35.15
2022-08-08T06:20:16.161Z,35.29
2022-08-08T06:21:48.537Z,35.65
2022-08-08T06:22:35.847Z,35.61
2022-08-08T06:23:13.002Z,35.61
2022-08-08T06:24:30.309Z,35.85
2022-08-08T06:25:13.584Z,35.85
2022-08-08T06:26:50.693Z,35.15
2022-08-08T06:27:12.778Z,35.15
2022-08-08T06:28:10.807Z,35.28
2022-08-08T06:30:00.767Z,35.59
2022-08-08T06:30:28.370Z,35.41
2022-08-08T06:31:18.825Z,35.51
2022-08-08T06:32:18.333Z,35.51
2022-08-08T06:33:13.128Z,35.47
2022-08-08T06:34:31.263Z,35.40
2022-08-08T06:36:10.236Z,35.18
2022-08-08T06:36:13.547Z,35.18
2022-08-08T06:37:40.899Z,35.37
2022-08-08T06:39:10.415Z,34.88
2022-08-08T06:40:17.669Z,35.38
2022-08-08T06:41:13.133Z,34.52
2022-08-08T06:42:11.091Z,33.86
2022-08-08T06:43:13.124Z,34.63
2022-08-08T06:44:22.842Z,35.68
2022-08-08T06:45:12.175Z,35.40
2022-08-08T06:46:12.978Z,35.38
2022-08-08T06:47:13.964Z,35.61
2022-08-08T06:48:11.915Z,35.36
2022-08-08T06:49:14.511Z,35.86
2022-08-08T06:50:17.622Z,35.52
2022-08-08T06:51:12.012Z,35.61
2022-08-08T06:52:11.274Z,36.09
2022-08-08T06:53:20.444Z,36.00
2022-08-08T06:54:11.158Z,36.47
2022-08-08T06:55:12.341Z,36.13
2022-08-08T06:56:10.604Z,35.84
2022-08-08T06:57:15.020Z,35.63
2022-08-08T06:58:10.418Z,36.56
2022-08-08T06:59:15.699Z,36.22
2022-08-08T07:00:16.210Z,36.52
2022-08-08T07:02:32.494Z,36.81
2022-08-08T07:03:52.579Z,36.81
2022-08-08T07:04:49.779Z,36.68
2022-08-08T07:05:20.763Z,36.68
2022-08-08T07:06:11.206Z,36.63
2022-08-08T07:07:15.528Z,36.47
2022-08-08T07:08:12.472Z,36.43
2022-08-08T07:09:21.270Z,36.74
2022-08-08T07:10:12.386Z,36.97
2022-08-08T07:11:21.887Z,36.43
2022-08-08T07:12:12.504Z,36.88
2022-08-08T07:13:10.542Z,36.92
2022-08-08T07:14:10.782Z,36.38
2022-08-08T07:16:05.162Z,37.10
2022-08-08T07:16:15.444Z,37.10
2022-08-08T07:17:18.972Z,36.61
2022-08-08T07:19:34.005Z,36.31
2022-08-08T07:20:14.460Z,36.31
2022-08-08T07:21:22.863Z,34.52
2022-08-08T07:23:11.948Z,36.18
2022-08-08T07:24:12.954Z,36.56
2022-08-08T07:25:11.025Z,36.50
2022-08-08T07:26:10.946Z,36.79
2022-08-08T07:27:16.840Z,37.09
2022-08-08T07:28:13.481Z,37.09
2022-08-08T07:29:20.429Z,36.61
2022-08-08T07:31:13.374Z,37.15
2022-08-08T07:32:10.788Z,36.77
2022-08-08T07:33:17.779Z,36.79
2022-08-08T07:34:26.741Z,36.83
2022-08-08T07:35:12.092Z,37.06
2022-08-08T07:36:11.586Z,37.04
2022-08-08T07:37:16.638Z,36.63
2022-08-08T07:39:16.800Z,36.65
2022-08-08T07:40:12.789Z,36.54
2022-08-08T07:41:24.742Z,36.54
2022-08-08T07:42:18.867Z,36.54
2022-08-08T07:43:13.124Z,30
2022-08-08T07:44:44.182Z,36.33
2022-08-08T07:45:10.221Z,36.33
2022-08-08T07:46:30.468Z,36.61
2022-08-08T07:47:10.986Z,36.61
2022-08-08T07:48:13.023Z,36.61
2022-08-08T07:49:10.173Z,36.31
2022-08-08T07:50:11.644Z,36.75
2022-08-08T07:51:44.696Z,36.83
2022-08-08T07:52:13.087Z,36.83
2022-08-08T07:53:10.378Z,36.49
2022-08-08T07:54:10.153Z,36.65
2022-08-08T07:55:11.790Z,36.65
2022-08-08T07:56:11.640Z,36.74
2022-08-08T07:57:16.977Z,36.72
2022-08-08T07:58:12.741Z,36.65
2022-08-08T07:59:14.203Z,36.74
2022-08-08T08:01:11.587Z,36.96
2022-08-08T08:02:41.721Z,36.79
2022-08-08T08:03:23.373Z,36.79
2022-08-08T08:04:17.232Z,36.54
2022-08-08T08:05:18.355Z,36.58
2022-08-08T08:06:14.418Z,35.49
2022-08-08T08:07:10.212Z,35.59
2022-08-08T08:08:10.932Z,36.45
2022-08-08T08:09:11.652Z,36.79
2022-08-08T08:10:16.027Z,36.65
2022-08-08T08:11:10.163Z,36.86
2022-08-08T08:12:31.641Z,36.94
2022-08-08T08:13:25.174Z,36.56
2022-08-08T08:14:15.240Z,36.56
2022-08-08T08:15:11.436Z,36.65
2022-08-08T08:16:10.888Z,36.90
2022-08-08T08:17:12.058Z,36.77
2022-08-08T08:19:12.841Z,36.75
2022-08-08T08:20:13.644Z,36.77
2022-08-08T08:21:35.358Z,36.54
2022-08-08T08:22:11.067Z,36.54
2022-08-08T08:23:10.771Z,36.81
2022-08-08T08:24:13.868Z,36.81
2022-08-08T08:25:12.276Z,36.47
2022-08-08T08:26:09.951Z,36.72
2022-08-08T08:27:12.825Z,36.43
2022-08-08T08:28:16.890Z,36.53
2022-08-08T08:29:19.354Z,36.18
2022-08-08T08:30:10.872Z,36.22
2022-08-08T08:31:10.981Z,36.13
2022-08-08T08:32:24.159Z,36.06
2022-08-08T08:33:14.590Z,36.23
2022-08-08T08:34:12.885Z,35.97
2022-08-08T08:35:10.664Z,35.95
2022-08-08T08:36:26.585Z,36.32
2022-08-08T08:37:12.160Z,36.32
2022-08-08T08:39:22.873Z,36.27
2022-08-08T08:40:16.591Z,36.27
2022-08-08T08:41:22.337Z,36.43
2022-08-08T08:42:13.267Z,36.43
2022-08-08T08:43:18.981Z,36.67
2022-08-08T08:45:26.340Z,36.22
2022-08-08T08:46:10.510Z,36.22
2022-08-08T08:47:11.591Z,36.15
2022-08-08T08:48:19.370Z,36.25
2022-08-08T08:49:10.528Z,36.06
2022-08-08T08:50:35.319Z,36.36
2022-08-08T08:51:10.443Z,36.36
2022-08-08T08:52:10.952Z,36.38
2022-08-08T08:53:55.947Z,35.59
2022-08-08T08:54:09.397Z,35.59
2022-08-08T08:55:16.156Z,35.95
2022-08-08T08:56:11.239Z,35.86
2022-08-08T08:58:10.879Z,35.43
2022-08-08T08:59:23.605Z,35.72
2022-08-08T09:01:16.759Z,35.84
2022-08-08T09:02:15.192Z,35.74
2022-08-08T09:03:13.492Z,35.79
2022-08-08T09:04:38.612Z,35.44
2022-08-08T09:05:48.903Z,35.44
2022-08-08T09:06:34.287Z,35.47
2022-08-08T09:07:16.578Z,35.47
2022-08-08T09:08:24.047Z,35.63
2022-08-08T09:09:35.348Z,35.63
2022-08-08T09:11:12.254Z,35.75
2022-08-08T09:12:11.495Z,35.65
2022-08-08T09:13:10.663Z,35.78
2022-08-08T09:14:11.410Z,35.77
2022-08-08T09:15:12.013Z,35.59
2022-08-08T09:16:11.511Z,35.51
2022-08-08T09:17:19.601Z,35.39
2022-08-08T09:18:13.044Z,35.18
2022-08-08T09:19:12.897Z,35.45
2022-08-08T09:22:11.149Z,35.82
2022-08-08T09:22:11.922Z,35.82
2022-08-08T09:22:13.495Z,35.82
2022-08-08T09:23:17.822Z,35.63
2022-08-08T09:24:24.295Z,35.81
2022-08-08T09:25:15.190Z,35.81
2022-08-08T09:26:12.531Z,35.81
2022-08-08T09:27:20.974Z,35.25
2022-08-08T09:28:30.769Z,35.25
2022-08-08T09:29:12.888Z,35.41
2022-08-08T09:30:14.693Z,35.18
2022-08-08T09:31:16.634Z,35.41
2022-08-08T09:32:17.749Z,35.34
2022-08-08T09:34:35.847Z,35.59
2022-08-08T09:34:37.802Z,35.59
2022-08-08T09:35:11.938Z,35.59
2022-08-08T09:36:12.734Z,35.77
2022-08-08T09:38:03.434Z,35.47
2022-08-08T09:39:22.422Z,35.34
2022-08-08T09:40:15.165Z,35.34
2022-08-08T09:41:10.652Z,35.53
2022-08-08T09:42:25.956Z,35.74
2022-08-08T09:44:04.685Z,35.67
2022-08-08T09:44:19.053Z,35.67
2022-08-08T09:46:02.853Z,35.65
2022-08-08T09:48:22.054Z,35.36
2022-08-08T09:48:27.014Z,34.90
2022-08-08T09:49:52.726Z,34.79
2022-08-08T09:50:17.440Z,34.79
2022-08-08T09:51:10.585Z,35.06
2022-08-08T09:53:05.634Z,34.97
2022-08-08T09:53:53.147Z,34.97
2022-08-08T09:55:17.032Z,35.04
2022-08-08T09:56:22.258Z,34.93
2022-08-08T09:57:19.747Z,35.20
2022-08-08T09:58:11.287Z,35.20
2022-08-08T10:00:14.737Z,33.36
2022-08-08T10:00:53.485Z,33.63
2022-08-08T10:02:02.791Z,33.09
2022-08-08T10:02:18.111Z,33.09
2022-08-08T10:03:10.367Z,34.95
2022-08-08T10:04:12.259Z,35.05
2022-08-08T10:05:23.031Z,35.09
2022-08-08T10:06:13.849Z,35.45
2022-08-08T10:07:15.790Z,35.11
2022-08-08T10:08:13.341Z,35.67
2022-08-08T10:09:11.735Z,35.73
2022-08-08T10:10:10.565Z,35.65
2022-08-08T10:12:38.754Z,35.68
2022-08-08T10:12:47.051Z,35.68
2022-08-08T10:13:18.109Z,35.68
2022-08-08T10:14:28.306Z,35.70
2022-08-08T10:15:21.666Z,35.65
2022-08-08T10:16:12.508Z,35.65
2022-08-08T10:18:17.638Z,35.50
2022-08-08T10:19:10.657Z,35.15
2022-08-08T10:20:12.349Z,35.15
2022-08-08T10:21:33.023Z,35.40
2022-08-08T10:22:12.619Z,35.40
2022-08-08T10:23:38.009Z,35.45
2022-08-08T10:24:35.177Z,35.72
2022-08-08T10:25:19.226Z,35.38
2022-08-08T10:26:57.455Z,35.38
2022-08-08T10:27:17.183Z,35.38
2022-08-08T10:29:11.288Z,35.09
2022-08-08T10:31:11.264Z,34.99
2022-08-08T10:32:10.593Z,35.04
2022-08-08T10:33:12.322Z,20
2022-08-08T10:34:23.796Z,34.70
2022-08-08T10:36:08.859Z,34.31
2022-08-08T10:36:26.209Z,34.02
2022-08-08T10:37:12.363Z,34.02
2022-08-08T10:38:13.718Z,34.17
2022-08-08T10:39:11.117Z,34.08
2022-08-08T10:40:11.238Z,34.02
2022-08-08T10:41:11.442Z,33.84
2022-08-08T10:43:14.253Z,33.99
2022-08-08T10:44:10.108Z,34.42
2022-08-08T10:45:16.092Z,34.22
2022-08-08T10:46:33.502Z,34.31
2022-08-08T10:47:10.764Z,34.31
2022-08-08T10:48:10.704Z,33.95
2022-08-08T10:50:02.361Z,34.04
2022-08-08T10:50:10.939Z,34.04
2022-08-08T10:51:11.738Z,33.86
2022-08-08T10:52:10.297Z,33.63
2022-08-08T10:53:14.887Z,33.88
2022-08-08T10:54:10.825Z,33.84
2022-08-08T10:55:13.462Z,33.84
2022-08-08T10:56:10.557Z,33.84
2022-08-08T10:57:12.350Z,34.02
2022-08-08T10:58:10.839Z,34.08
2022-08-08T10:59:14.238Z,34.06
2022-08-08T11:00:12.257Z,33.77
2022-08-08T11:01:15.996Z,33.63
2022-08-08T11:02:11.794Z,33.02
2022-08-08T11:03:11.003Z,33.09
2022-08-08T11:04:14.087Z,33.33
2022-08-08T11:05:18.458Z,33.15
2022-08-08T11:06:17.430Z,33.15
2022-08-08T11:07:40.668Z,33.47
2022-08-08T11:08:53.075Z,33.38
2022-08-08T11:09:21.713Z,33.38
2022-08-08T11:10:11.295Z,33.50
2022-08-08T11:12:05.354Z,33.65
2022-08-08T11:12:17.819Z,33.65
2022-08-08T11:13:34.803Z,33.33
2022-08-08T11:14:12.417Z,33.33
2022-08-08T11:15:10.741Z,33.52
2022-08-08T11:16:31.938Z,33.47
2022-08-08T11:17:18.153Z,33.34
2022-08-08T11:18:12.969Z,33.49
2022-08-08T11:19:15.740Z,33.29
2022-08-08T11:20:18.198Z,33.54
2022-08-08T11:21:20.246Z,33.34
2022-08-08T11:22:10.065Z,27
2022-08-08T11:23:10.417Z,33.46
2022-08-08T11:24:13.492Z,33.41
2022-08-08T11:25:18.737Z,33.42
2022-08-08T11:26:11.129Z,33.11
2022-08-08T11:27:23.304Z,33.20
2022-08-08T11:28:11.515Z,33.20
2022-08-08T11:29:11.605Z,33.24
2022-08-08T11:30:31.767Z,33.27
2022-08-08T11:31:13.100Z,33.27
2022-08-08T11:32:13.348Z,33.18
2022-08-08T11:33:15.848Z,33.27
2022-08-08T11:34:34.507Z,33.27
2022-08-08T11:35:38.307Z,33.13
2022-08-08T11:36:13.269Z,33.13
2022-08-08T11:37:18.783Z,33.09
2022-08-08T11:38:53.724Z,33.20
2022-08-08T11:39:16.458Z,33.20
2022-08-08T11:40:11.956Z,32.90
2022-08-08T11:41:10.169Z,32.95
2022-08-08T11:42:12.663Z,32.68
2022-08-08T11:43:15.178Z,32.27
2022-08-08T11:44:12.110Z,32.43
2022-08-08T11:45:12.080Z,32.16
2022-08-08T11:46:21.548Z,31.52
2022-08-08T11:47:21.101Z,29.95
2022-08-08T11:48:13.230Z,29.95
2022-08-08T11:49:14.784Z,30.55
2022-08-08T11:50:13.579Z,30.59
2022-08-08T11:51:50.282Z,29.81
2022-08-08T11:53:11.515Z,32.75
2022-08-08T11:54:32.203Z,32.58
2022-08-08T11:55:10.711Z,32.58
2022-08-08T11:56:11.389Z,31.31
2022-08-08T11:57:18.015Z,27
2022-08-08T11:58:18.799Z,27
2022-08-08T11:59:57.972Z,33.56
2022-08-08T12:00:14.186Z,33.31
2022-08-08T12:01:19.287Z,33.52
2022-08-08T12:02:45.557Z,33.49
2022-08-08T12:03:15.074Z,33.49
2022-08-08T12:04:10.218Z,33.72
2022-08-08T12:05:15.918Z,32
2022-08-08T12:06:13.423Z,31.93
2022-08-08T12:07:14.437Z,31.43
2022-08-08T12:08:11.311Z,31.61
2022-08-08T12:09:17.409Z,31.35
2022-08-08T12:10:12.164Z,32.49
2022-08-08T12:11:10.562Z,32.11
2022-08-08T12:12:10.745Z,30.13
2022-08-08T12:13:14.129Z,29.56
2022-08-08T12:14:14.452Z,28.61
2022-08-08T12:15:12.828Z,28.53
2022-08-08T12:16:10.429Z,28.37
2022-08-08T12:17:14.214Z,28.57
2022-08-08T12:18:11.331Z,28.38
2022-08-08T12:19:10.465Z,28.37
2022-08-08T12:20:17.948Z,28.31
2022-08-08T12:21:11.035Z,28.62
2022-08-08T12:22:33.439Z,28.69
2022-08-08T12:23:43.151Z,28.64
2022-08-08T12:24:14.031Z,28.59
2022-08-08T12:25:13.316Z,28.60
2022-08-08T12:26:17.180Z,28.55
2022-08-08T12:27:11.044Z,28.60
2022-08-08T12:28:18.760Z,28.44
2022-08-08T12:29:11.963Z,28.26
2022-08-08T12:30:25.173Z,28.51
2022-08-08T12:31:11.913Z,28.51
2022-08-08T12:33:12.004Z,28.62
2022-08-08T12:34:12.546Z,28.84
2022-08-08T12:35:21.726Z,28.69
2022-08-08T12:36:10.833Z,28.69
2022-08-08T12:37:11.825Z,28.63
2022-08-08T12:38:10.539Z,28.26
2022-08-08T12:39:12.225Z,28.34
2022-08-08T12:40:23.651Z,28.81
2022-08-08T12:41:33.990Z,28.68
2022-08-08T12:42:27.311Z,28.86
2022-08-08T12:43:12.561Z,28.86
2022-08-08T12:44:10.812Z,29.20
2022-08-08T12:46:03.489Z,29.21
2022-08-08T12:46:12.518Z,29.21
2022-08-08T12:47:16.431Z,28.94
2022-08-08T12:48:40.846Z,28.96
2022-08-08T12:49:46.490Z,28.73
2022-08-08T12:50:11.040Z,28.73
2022-08-08T12:51:15.214Z,29.26
2022-08-08T12:52:32.234Z,29.18
2022-08-08T12:53:10.442Z,29.18
2022-08-08T12:54:28.718Z,29.36
2022-08-08T12:55:17.905Z,29.36
2022-08-08T12:56:26.939Z,29.45
2022-08-08T12:57:11.256Z,29.45
2022-08-08T12:58:15.829Z,29.68
2022-08-08T12:59:10.133Z,29.48
2022-08-08T13:00:21.440Z,29.54
2022-08-08T13:02:10.674Z,29.45
2022-08-08T13:03:16.362Z,29.61
2022-08-08T13:04:12.701Z,29.72
2022-08-08T13:06:05.549Z,29.19
2022-08-08T13:06:17.387Z,29.19
2022-08-08T13:07:16.655Z,29.12
2022-08-08T13:08:10.347Z,29.46
2022-08-08T13:09:13.885Z,29.79
2022-08-08T13:10:14.454Z,29.80
2022-08-08T13:11:10.659Z,29.55
2022-08-08T13:12:32.202Z,29.71
2022-08-08T13:13:11.466Z,29.71
2022-08-08T13:14:13.561Z,29.97
2022-08-08T13:15:11.526Z,30.02
2022-08-08T13:16:10.582Z,29.85
2022-08-08T13:18:10.666Z,30.22
2022-08-08T13:18:24.624Z,30.22
2022-08-08T13:19:18.017Z,30.29
2022-08-08T13:20:12.274Z,29.42
2022-08-08T13:21:10.771Z,30.29
2022-08-08T13:22:10.579Z,30.23
2022-08-08T13:23:46.574Z,30.07
2022-08-08T13:24:10.503Z,30.07
2022-08-08T13:25:10.503Z,30.12
2022-08-08T13:27:15.546Z,29.90
2022-08-08T13:28:12.107Z,30.02
2022-08-08T13:29:14.029Z,30.36
2022-08-08T13:30:12.474Z,29.96
2022-08-08T13:31:10.852Z,29.82
2022-08-08T13:32:14.270Z,30.10
2022-08-08T13:33:10.543Z,30.27